createdAt,value
2018-05-17T00:00:24.950Z,10.7
2018-05-17T00:05:54.899Z,10.7
2018-05-17T00:11:23.553Z,10.7
2018-05-17T00:16:53.243Z,10.7
2018-05-17T00:22:21.987Z,10.8
2018-05-17T00:27:50.713Z,10.8
2018-05-17T00:33:20.475Z,10.8
2018-05-17T00:38:49.313Z,10.8
2018-05-17T00:44:19.040Z,10.8
2018-05-17T00:49:47.864Z,10.7
2018-05-17T00:49:48.763Z,10.7
2018-05-17T00:55:16.585Z,10.7
2018-05-17T01:00:46.306Z,10.6
2018-05-17T01:06:15.445Z,10.5
2018-05-17T01:11:44.818Z,10.4
2018-05-17T01:17:13.801Z,10.4
2018-05-17T01:22:42.382Z,10.4
2018-05-17T01:28:12.391Z,10.3
2018-05-17T01:33:41.042Z,10.3
2018-05-17T01:39:10.501Z,10.2
2018-05-17T01:44:39.823Z,10.2
2018-05-17T01:50:08.037Z,10.2
2018-05-17T01:55:36.627Z,10.2
2018-05-17T02:01:05.352Z,10.2
2018-05-17T02:06:34.032Z,10.3
2018-05-17T02:12:03.208Z,10.3
2018-05-17T02:17:32.498Z,10.3
2018-05-17T02:23:01.280Z,10.3
2018-05-17T02:28:30.110Z,10.3
2018-05-17T02:33:58.713Z,10.3
2018-05-17T02:39:27.434Z,10.4
2018-05-17T02:44:57.245Z,10.4
2018-05-17T02:50:25.947Z,10.4
2018-05-17T02:55:55.606Z,10.4
2018-05-17T03:01:25.398Z,10.4
2018-05-17T03:06:54.170Z,10.4
2018-05-17T03:12:22.854Z,10.5
2018-05-17T03:17:51.940Z,10.6
2018-05-17T03:23:20.356Z,10.6
2018-05-17T03:28:49.063Z,10.6
2018-05-17T03:34:17.775Z,10.6
2018-05-17T03:39:46.589Z,10.6
2018-05-17T03:39:47.077Z,10.6
2018-05-17T03:45:16.352Z,10.6
2018-05-17T03:50:46.071Z,10.6
2018-05-17T03:56:14.809Z,10.6
2018-05-17T04:01:44.592Z,10.7
2018-05-17T04:07:13.353Z,10.7
2018-05-17T04:12:42.119Z,10.7
2018-05-17T04:18:11.751Z,10.7
2018-05-17T04:23:41.540Z,10.7
2018-05-17T04:29:10.396Z,10.8
2018-05-17T04:34:39.101Z,10.8
2018-05-17T04:40:07.872Z,10.9
2018-05-17T04:45:37.570Z,11
2018-05-17T04:51:05.358Z,11
2018-05-17T04:56:34.295Z,11
2018-05-17T05:02:03.930Z,11.1
2018-05-17T05:07:33.648Z,11
2018-05-17T05:13:02.496Z,11
2018-05-17T05:18:31.250Z,11
2018-05-17T05:24:00.015Z,11
2018-05-17T05:29:28.830Z,11.1
2018-05-17T05:34:58.538Z,11.2
2018-05-17T05:40:28.311Z,11.3
2018-05-17T05:45:57.382Z,11.4
2018-05-17T05:51:26.020Z,11.5
2018-05-17T05:56:55.869Z,11.5
2018-05-17T06:02:24.673Z,11.6
2018-05-17T06:07:54.526Z,11.8
2018-05-17T06:13:24.541Z,11.9
2018-05-17T06:18:53.143Z,12
2018-05-17T06:24:21.974Z,12.1
2018-05-17T06:29:51.905Z,12.2
2018-05-17T06:35:20.963Z,12.3
2018-05-17T06:40:49.899Z,12.4
2018-05-17T06:46:19.503Z,12.4
2018-05-17T06:51:49.461Z,12.5
2018-05-17T06:57:18.351Z,12.5
2018-05-17T07:02:48.249Z,12.5
2018-05-17T07:08:17.131Z,12.5
2018-05-17T07:13:46.282Z,12.5
2018-05-17T07:19:14.991Z,12.6
2018-05-17T07:24:43.972Z,12.8
2018-05-17T07:30:12.789Z,12.9
2018-05-17T07:35:41.848Z,13.1
2018-05-17T07:41:11.796Z,13.2
2018-05-17T07:46:41.796Z,13.3
2018-05-17T07:52:10.808Z,13.4
2018-05-17T07:57:40.691Z,13.6
2018-05-17T08:03:09.854Z,13.9
2018-05-17T08:08:39.703Z,14
2018-05-17T08:14:09.788Z,14
2018-05-17T08:19:39.966Z,14.1
2018-05-17T08:25:08.940Z,14.2
2018-05-17T08:25:10.094Z,14.2
2018-05-17T08:30:39.752Z,14.5
2018-05-17T08:36:08.356Z,14.6
2018-05-17T08:41:38.437Z,14.7
2018-05-17T08:47:08.743Z,14.7
2018-05-17T08:52:37.441Z,14.7
2018-05-17T08:58:07.506Z,14.6
2018-05-17T09:03:37.619Z,14.6
2018-05-17T09:09:06.730Z,14.6
2018-05-17T09:14:35.862Z,14.9
2018-05-17T09:20:05.160Z,15.1
2018-05-17T09:25:35.287Z,15.2
2018-05-17T09:31:04.323Z,15.4
2018-05-17T09:36:34.556Z,15.7
2018-05-17T09:42:03.756Z,15.8
2018-05-17T09:47:33.032Z,15.8
2018-05-17T09:53:02.398Z,15.8
2018-05-17T09:58:32.727Z,15.8
2018-05-17T10:04:01.613Z,15.8
2018-05-17T10:09:31.920Z,16
2018-05-17T10:15:02.443Z,16
2018-05-17T10:20:31.311Z,15.8
2018-05-17T10:26:01.623Z,15.8
2018-05-17T10:31:30.766Z,15.8
2018-05-17T10:37:00.075Z,15.9
2018-05-17T10:42:30.326Z,15.9
2018-05-17T10:47:59.407Z,15.8
2018-05-17T10:53:29.629Z,15.8
2018-05-17T10:58:58.845Z,15.9
2018-05-17T11:04:29.436Z,16.2
2018-05-17T11:09:58.414Z,16.5
2018-05-17T11:15:27.730Z,16.6
2018-05-17T11:20:58.016Z,16.7
2018-05-17T11:26:28.288Z,16.7
2018-05-17T11:26:29.270Z,16.7
2018-05-17T11:37:27.953Z,16.7
2018-05-17T11:42:57.513Z,16.7
2018-05-17T11:48:26.828Z,16.6
2018-05-17T11:53:56.163Z,16.8
2018-05-17T11:59:25.307Z,17
2018-05-17T12:04:54.712Z,16.8
2018-05-17T12:10:24.851Z,16.7
2018-05-17T12:15:54.345Z,16.6
2018-05-17T12:21:23.688Z,16.6
2018-05-17T12:26:54.980Z,16.7
2018-05-17T12:32:23.060Z,16.8
2018-05-17T12:37:52.399Z,16.8
2018-05-17T12:43:23.343Z,17.1
2018-05-17T12:48:53.093Z,17.3
2018-05-17T12:54:23.555Z,17.2
2018-05-17T12:59:52.889Z,16.9
2018-05-17T13:05:22.208Z,16.8
2018-05-17T13:10:52.474Z,16.7
2018-05-17T13:16:21.814Z,16.8
2018-05-17T13:21:51.318Z,16.9
2018-05-17T13:27:21.478Z,17
2018-05-17T13:32:51.799Z,17.1
2018-05-17T13:38:21.286Z,17.3
2018-05-17T13:43:51.601Z,17.5
2018-05-17T13:49:21.000Z,17.6
2018-05-17T13:54:50.767Z,17.6
2018-05-17T14:00:20.004Z,17.7
2018-05-17T14:05:50.407Z,17.8
2018-05-17T14:11:20.716Z,17.8
2018-05-17T14:16:51.188Z,17.8
2018-05-17T14:22:21.548Z,17.9
2018-05-17T14:27:52.008Z,18
2018-05-17T14:33:22.632Z,18.1
2018-05-17T14:38:51.917Z,18.2
2018-05-17T14:44:21.350Z,18.2
2018-05-17T14:49:51.242Z,18.2
2018-05-17T14:55:20.523Z,18.3
2018-05-17T15:00:50.942Z,18.4
2018-05-17T15:06:21.479Z,18.5
2018-05-17T15:11:51.854Z,18.5
2018-05-17T15:17:22.296Z,18.6
2018-05-17T15:22:52.905Z,18.6
2018-05-17T15:28:23.413Z,18.7
2018-05-17T15:33:52.914Z,18.7
2018-05-17T15:39:23.457Z,18.7
2018-05-17T15:44:54.169Z,18.7
2018-05-17T15:50:23.567Z,18.7
2018-05-17T15:55:54.114Z,18.7
2018-05-17T16:01:24.790Z,18.8
2018-05-17T16:06:54.336Z,18.8
2018-05-17T16:12:23.860Z,18.8
2018-05-17T16:17:53.485Z,18.9
2018-05-17T16:23:24.172Z,18.9
2018-05-17T16:28:53.753Z,19
2018-05-17T16:34:23.224Z,19
2018-05-17T16:39:53.495Z,19
2018-05-17T16:45:23.415Z,19
2018-05-17T16:50:53.115Z,19
2018-05-17T16:56:23.742Z,19.1
2018-05-17T17:01:54.416Z,19.1
2018-05-17T17:07:24.835Z,19.1
2018-05-17T17:12:54.433Z,19
2018-05-17T17:18:25.065Z,19
2018-05-17T17:23:54.736Z,18.8
2018-05-17T17:29:24.168Z,18.6
2018-05-17T17:34:54.680Z,18.4
2018-05-17T17:40:25.213Z,18.3
2018-05-17T17:45:55.607Z,18.1
2018-05-17T17:51:25.047Z,18
2018-05-17T17:56:55.481Z,17.9
2018-05-17T18:02:25.997Z,17.8
2018-05-17T18:07:55.351Z,17.7
2018-05-17T18:13:25.847Z,17.5
2018-05-17T18:18:55.591Z,17.4
2018-05-17T18:24:25.637Z,17.2
2018-05-17T18:29:56.134Z,17
2018-05-17T18:35:25.228Z,16.9
2018-05-17T18:40:54.554Z,16.7
2018-05-17T18:46:24.818Z,16.6
2018-05-17T18:51:55.310Z,16.4
2018-05-17T18:57:25.411Z,16.3
2018-05-17T19:02:54.677Z,16.2
2018-05-17T19:08:24.946Z,16
2018-05-17T19:13:54.219Z,15.9
2018-05-17T19:19:24.376Z,15.8
2018-05-17T19:24:54.582Z,15.6
2018-05-17T19:30:23.918Z,15.5
2018-05-17T19:35:52.920Z,15.3
2018-05-17T19:41:22.061Z,15.2
2018-05-17T19:46:52.217Z,15
2018-05-17T19:52:22.350Z,14.9
2018-05-17T19:57:51.444Z,14.8
2018-05-17T20:03:21.712Z,14.6
2018-05-17T20:08:51.612Z,14.5
2018-05-17T20:14:21.825Z,14.4
2018-05-17T20:19:51.760Z,14.4
2018-05-17T20:25:20.850Z,14.2
2018-05-17T20:30:50.323Z,14.1
2018-05-17T20:36:18.945Z,14.1
2018-05-17T20:41:48.048Z,14
2018-05-17T20:47:16.984Z,13.9
2018-05-17T20:52:46.114Z,13.8
2018-05-17T20:58:15.083Z,13.7
2018-05-17T21:03:45.070Z,13.5
2018-05-17T21:09:15.021Z,13.5
2018-05-17T21:14:44.079Z,13.5
2018-05-17T21:20:14.049Z,13.5
2018-05-17T21:25:42.969Z,13.5
2018-05-17T21:31:12.953Z,13.5
2018-05-17T21:36:43.137Z,13.5
2018-05-17T21:42:12.984Z,13.5
2018-05-17T21:47:41.930Z,13.4
2018-05-17T21:53:10.892Z,13.3
2018-05-17T21:58:39.869Z,13.3
2018-05-17T22:04:09.757Z,13.2
2018-05-17T22:09:38.941Z,13.1
2018-05-17T22:15:07.630Z,13
2018-05-17T22:20:36.572Z,13
2018-05-17T22:26:05.515Z,12.9
2018-05-17T22:31:35.423Z,12.9
2018-05-17T22:37:05.320Z,12.8
2018-05-17T22:42:34.252Z,12.9
2018-05-17T22:48:04.649Z,12.9
2018-05-17T22:53:33.137Z,12.9
2018-05-17T22:59:02.255Z,12.8
2018-05-17T23:04:32.320Z,12.6
2018-05-17T23:10:00.825Z,12.4
2018-05-17T23:15:31.012Z,12.2
2018-05-17T23:20:59.644Z,12.1
2018-05-17T23:26:28.362Z,12.1
2018-05-17T23:31:57.231Z,12
2018-05-17T23:37:27.014Z,11.9
2018-05-17T23:42:55.918Z,11.8
2018-05-17T23:48:24.625Z,11.8
2018-05-17T23:53:53.548Z,11.7
2018-05-17T23:53:53.971Z,11.7
2018-05-17T23:59:22.325Z,11.6
